Time;durP1;ratioP1;P1;durP2;ratioP2;P2;SDS_P1;SDS_P2;PMS_P1;PMS_P2;Temp;Humidity;BMP_temperature;BMP_pressure;BME280_temperature;BME280_humidity;BME280_pressure;Samples;Min_cycle;Max_cycle;Signal;HPM_P1;HPM_P2
2022/05/29 00:00:48;;;;;;;11.95;3.50;;;10.10;99.90;;;;;;5027794;28;20037;-73
2022/05/29 00:03:14;;;;;;;11.20;3.35;;;10.10;99.90;;;;;;5025660;28;20391;-73
2022/05/29 00:05:41;;;;;;;12.82;3.45;;;10.10;99.90;;;;;;5029663;28;20068;-73
2022/05/29 00:08:12;;;;;;;12.20;3.47;;;10.10;99.90;;;;;;5026073;28;20056;-73
2022/05/29 00:10:41;;;;;;;11.23;3.50;;;10.20;99.90;;;;;;5024994;28;20124;-73
2022/05/29 00:13:07;;;;;;;14.05;3.45;;;10.20;99.90;;;;;;5026308;28;20037;-73
2022/05/29 00:15:33;;;;;;;11.85;3.47;;;10.20;99.90;;;;;;5027147;28;20045;-73
2022/05/29 00:17:59;;;;;;;14.90;3.53;;;10.30;99.90;;;;;;5024541;28;20049;-73
2022/05/29 00:20:24;;;;;;;13.07;3.45;;;10.30;99.90;;;;;;5027783;28;20064;-73
2022/05/29 00:22:51;;;;;;;14.43;3.13;;;10.30;99.90;;;;;;5027587;28;20041;-73
2022/05/29 00:25:17;;;;;;;9.35;3.58;;;10.30;99.90;;;;;;5028474;28;20048;-73
2022/05/29 00:27:43;;;;;;;11.13;4.10;;;10.30;99.90;;;;;;5026740;28;20037;-73
2022/05/29 00:30:11;;;;;;;11.70;3.95;;;10.30;99.90;;;;;;5028414;28;20088;-73
2022/05/29 00:32:37;;;;;;;12.63;3.58;;;10.30;99.90;;;;;;5028747;28;20037;-73
2022/05/29 00:35:03;;;;;;;13.43;3.75;;;10.30;99.90;;;;;;5026995;28;21074;-73
2022/05/29 00:37:38;;;;;;;10.98;3.50;;;10.30;99.90;;;;;;5027225;28;20102;-73
2022/05/29 00:40:18;;;;;;;8.88;3.22;;;10.40;99.90;;;;;;5026893;28;20030;-73
2022/05/29 00:42:44;;;;;;;10.38;3.40;;;10.40;99.90;;;;;;5026901;28;20041;-73
2022/05/29 00:45:17;;;;;;;14.40;3.90;;;10.30;99.90;;;;;;5026197;28;20045;-73
2022/05/29 00:47:42;;;;;;;15.75;3.85;;;10.30;99.90;;;;;;5025002;28;20515;-73
2022/05/29 00:50:08;;;;;;;9.80;3.60;;;10.30;99.90;;;;;;5027409;28;20029;-73
2022/05/29 00:52:34;;;;;;;13.15;3.80;;;10.30;99.90;;;;;;5027506;28;20049;-73
2022/05/29 00:55:10;;;;;;;13.85;3.60;;;10.30;99.90;;;;;;5026067;28;20041;-73
2022/05/29 00:57:46;;;;;;;15.02;3.85;;;10.30;99.90;;;;;;5027462;28;20045;-73
2022/05/29 01:00:20;;;;;;;11.63;3.80;;;10.30;99.90;;;;;;5026373;28;20045;-73
2022/05/29 01:02:46;;;;;;;11.60;4.18;;;10.20;99.90;;;;;;5028956;28;20066;-73
2022/05/29 01:05:14;;;;;;;12.85;4.20;;;10.20;99.90;;;;;;5025944;28;20060;-73
2022/05/29 01:07:44;;;;;;;13.02;3.83;;;10.20;99.90;;;;;;5026599;28;20057;-72
2022/05/29 01:10:10;;;;;;;15.10;4.15;;;10.20;99.90;;;;;;5026225;28;20037;-73
2022/05/29 01:12:45;;;;;;;14.25;4.15;;;10.20;99.90;;;;;;5026562;28;20053;-72
2022/05/29 01:15:33;;;;;;;14.70;3.83;;;10.20;99.90;;;;;;5024063;28;20045;-73
2022/05/29 01:18:22;;;;;;;13.85;5.05;;;10.10;99.90;;;;;;5027273;28;20068;-73
2022/05/29 01:21:10;;;;;;;10.55;3.60;;;10.10;99.90;;;;;;5025642;28;20072;-73
2022/05/29 01:24:00;;;;;;;8.45;3.67;;;10.00;99.90;;;;;;5042060;28;20033;-73
2022/05/29 01:27:14;;;;;;;9.25;3.80;;;10.00;99.90;;;;;;5024986;28;20045;-73
2022/05/29 01:29:53;;;;;;;10.38;3.97;;;10.00;99.90;;;;;;5025517;28;20164;-73
2022/05/29 01:32:34;;;;;;;15.38;4.22;;;9.90;99.90;;;;;;5026373;28;20076;-73
2022/05/29 01:35:28;;;;;;;11.43;3.55;;;9.90;99.90;;;;;;5026907;28;20045;-73
2022/05/29 01:38:07;;;;;;;14.23;3.80;;;9.90;99.90;;;;;;5028000;28;20045;-73
2022/05/29 01:40:41;;;;;;;16.33;4.47;;;9.90;99.90;;;;;;5026178;28;20046;-73
2022/05/29 01:43:30;;;;;;;14.85;3.78;;;9.90;99.90;;;;;;5027762;28;20152;-73
2022/05/29 01:46:06;;;;;;;14.38;4.22;;;9.90;99.90;;;;;;5026766;28;20041;-73
2022/05/29 01:48:58;;;;;;;13.45;3.90;;;9.90;99.90;;;;;;5025880;28;20163;-73
2022/05/29 01:51:30;;;;;;;22.92;4.53;;;9.90;99.90;;;;;;5024851;28;20035;-73
2022/05/29 01:54:44;;;;;;;17.73;3.92;;;9.90;99.90;;;;;;5029009;28;20041;-73
2022/05/29 01:57:33;;;;;;;14.23;3.97;;;9.80;99.90;;;;;;5025892;28;20401;-73
2022/05/29 02:00:17;;;;;;;18.92;4.38;;;9.90;99.90;;;;;;5025298;28;20037;-73
2022/05/29 02:03:03;;;;;;;12.57;3.80;;;9.90;99.90;;;;;;5027312;28;20033;-73
2022/05/29 02:05:32;;;;;;;12.23;4.22;;;9.80;99.90;;;;;;5027671;28;20037;-73
2022/05/29 02:08:08;;;;;;;13.18;4.00;;;9.90;99.90;;;;;;5027065;28;20034;-73
2022/05/29 02:10:34;;;;;;;13.10;3.67;;;9.80;99.90;;;;;;5027243;28;20510;-72
2022/05/29 02:13:02;;;;;;;12.02;3.97;;;9.90;99.90;;;;;;5026720;28;20037;-73
2022/05/29 02:15:47;;;;;;;16.23;4.35;;;9.80;99.90;;;;;;5026952;28;20045;-73
2022/05/29 02:18:32;;;;;;;12.77;4.20;;;9.90;99.90;;;;;;5027219;28;20076;-73
2022/05/29 02:21:02;;;;;;;13.90;3.95;;;9.90;99.90;;;;;;5026614;28;20059;-73
2022/05/29 02:23:35;;;;;;;13.05;4.20;;;9.90;99.90;;;;;;5027477;28;20084;-73
2022/05/29 02:26:02;;;;;;;;;;;9.90;99.90;;;;;;5029540;28;20029;-73
2022/05/29 02:28:35;;;;;;;15.43;4.18;;;9.90;99.90;;;;;;5030559;28;19940;-73
2022/05/29 02:31:10;;;;;;;16.77;4.28;;;9.90;99.90;;;;;;5027990;28;20037;-73
2022/05/29 02:33:45;;;;;;;15.02;3.83;;;9.90;99.90;;;;;;5028365;28;20036;-73
2022/05/29 02:36:23;;;;;;;14.90;4.57;;;9.90;99.90;;;;;;5032760;28;20705;-72
2022/05/29 02:39:06;;;;;;;16.67;4.15;;;9.80;99.90;;;;;;5026673;28;20068;-73
2022/05/29 02:41:58;;;;;;;15.38;3.78;;;9.80;99.90;;;;;;5032611;28;20496;-72
2022/05/29 02:44:41;;;;;;;15.82;4.50;;;9.70;99.90;;;;;;5031339;28;20045;-73
2022/05/29 02:47:19;;;;;;;14.48;3.97;;;9.70;99.90;;;;;;5029962;28;20480;-73
2022/05/29 02:50:14;;;;;;;18.02;4.10;;;9.70;99.90;;;;;;5029012;28;20060;-73
2022/05/29 02:52:40;;;;;;;16.67;4.47;;;9.70;99.90;;;;;;5025098;28;20500;-73
2022/05/29 02:55:06;;;;;;;16.73;4.22;;;9.70;99.90;;;;;;5029762;28;20038;-73
2022/05/29 02:57:33;;;;;;;14.15;4.68;;;9.70;99.90;;;;;;5029430;28;20491;-73
2022/05/29 03:00:07;;;;;;;12.55;4.35;;;9.60;99.90;;;;;;5028925;28;20492;-73
2022/05/29 03:02:57;;;;;;;10.48;4.05;;;9.60;99.90;;;;;;5029069;28;20041;-73
2022/05/29 03:05:55;;;;;;;12.20;4.07;;;9.70;99.90;;;;;;5027753;28;20492;-73
2022/05/29 03:08:26;;;;;;;16.73;4.15;;;9.70;99.90;;;;;;5008547;28;20037;-73
2022/05/29 03:11:07;;;;;;;12.30;4.10;;;9.70;99.90;;;;;;5028742;28;20510;-73
2022/05/29 03:13:48;;;;;;;13.40;4.18;;;9.70;99.90;;;;;;5029722;28;20527;-73
2022/05/29 03:16:26;;;;;;;16.70;4.30;;;9.70;99.90;;;;;;5028745;28;20454;-73
2022/05/29 03:19:26;;;;;;;23.75;4.25;;;9.80;99.90;;;;;;5029191;28;20051;-73
2022/05/29 03:22:29;;;;;;;13.38;3.65;;;9.80;99.90;;;;;;4974557;28;20422;-73
2022/05/29 03:25:07;;;;;;;;;;;9.80;99.90;;;;;;5028576;28;20403;-73
2022/05/29 03:27:39;;;;;;;11.23;3.50;;;9.80;99.90;;;;;;5027642;28;20284;-73
2022/05/29 03:30:28;;;;;;;10.82;3.45;;;9.80;99.90;;;;;;5034341;28;20482;-73
2022/05/29 03:32:57;;;;;;;9.90;3.55;;;9.80;99.90;;;;;;5026572;28;20454;-73
2022/05/29 03:35:27;;;;;;;13.70;4.10;;;9.90;99.90;;;;;;5024993;28;20025;-73
2022/05/29 03:37:54;;;;;;;14.73;4.20;;;9.90;99.90;;;;;;5027011;28;21935;-73
2022/05/29 03:40:21;;;;;;;12.23;3.67;;;9.90;99.90;;;;;;5028092;28;20376;-73
2022/05/29 03:42:46;;;;;;;11.05;3.67;;;9.90;99.90;;;;;;5027684;28;20399;-73
2022/05/29 03:45:13;;;;;;;16.98;4.25;;;9.90;99.90;;;;;;5027573;28;20038;-73
2022/05/29 03:47:39;;;;;;;14.30;3.88;;;9.90;99.90;;;;;;5026191;28;21309;-73
2022/05/29 03:50:08;;;;;;;14.77;3.95;;;9.90;99.90;;;;;;5027739;28;20063;-73
2022/05/29 03:52:34;;;;;;;14.88;3.72;;;10.00;99.90;;;;;;5028326;28;20045;-73
2022/05/29 03:55:00;;;;;;;11.77;3.67;;;10.00;99.90;;;;;;5029569;28;20068;-73
2022/05/29 03:57:27;;;;;;;12.40;4.05;;;10.10;99.90;;;;;;5027323;28;20171;-73
2022/05/29 03:59:53;;;;;;;17.95;3.85;;;10.10;99.90;;;;;;5025619;28;20080;-73
2022/05/29 04:02:19;;;;;;;13.27;3.47;;;10.20;99.90;;;;;;5011216;28;20049;-73
2022/05/29 04:04:44;;;;;;;14.00;3.25;;;10.10;99.90;;;;;;5029252;28;20124;-73
2022/05/29 04:07:10;;;;;;;14.52;3.83;;;10.10;99.90;;;;;;5027551;28;20040;-73
2022/05/29 04:12:20;;;;;;;11.30;3.50;;;10.10;99.90;;;;;;5025598;28;20049;-73
2022/05/29 04:14:46;;;;;;;13.02;3.67;;;10.20;99.90;;;;;;5028638;28;20045;-73
2022/05/29 04:17:18;;;;;;;15.20;4.15;;;10.20;99.90;;;;;;5028484;28;20399;-73
2022/05/29 04:19:46;;;;;;;12.70;3.90;;;10.10;99.90;;;;;;5026542;28;20033;-73
2022/05/29 04:22:19;;;;;;;15.77;3.92;;;10.10;99.90;;;;;;5025644;28;20033;-73
2022/05/29 04:24:45;;;;;;;13.68;3.47;;;10.10;99.90;;;;;;5026557;28;20042;-73
2022/05/29 04:27:14;;;;;;;16.15;3.70;;;10.10;99.90;;;;;;5028098;28;20045;-73
2022/05/29 04:29:40;;;;;;;17.05;4.78;;;10.20;99.90;;;;;;5025100;28;20037;-73
2022/05/29 04:34:55;;;;;;;16.98;4.00;;;10.10;99.90;;;;;;4999774;28;20041;-73
2022/05/29 04:37:21;;;;;;;16.33;4.10;;;10.20;99.90;;;;;;5024604;28;20492;-73
2022/05/29 04:39:47;;;;;;;14.20;4.13;;;10.20;99.90;;;;;;5026129;28;20044;-73
2022/05/29 04:42:12;;;;;;;15.55;4.20;;;10.20;99.90;;;;;;5024992;28;20369;-73
2022/05/29 04:44:38;;;;;;;9.65;3.90;;;10.20;99.90;;;;;;5023834;28;20429;-73
2022/05/29 04:47:04;;;;;;;14.77;4.22;;;10.30;99.90;;;;;;5027023;28;20677;-73
2022/05/29 04:49:31;;;;;;;11.68;4.15;;;10.30;99.90;;;;;;5026289;28;20037;-73
2022/05/29 04:51:57;;;;;;;12.68;3.30;;;10.30;99.90;;;;;;5026696;28;20041;-73
2022/05/29 04:54:23;;;;;;;10.88;3.50;;;10.40;99.90;;;;;;5026911;28;20443;-73
2022/05/29 04:56:49;;;;;;;8.38;3.03;;;10.40;99.90;;;;;;5028549;28;20033;-73
2022/05/29 04:59:16;;;;;;;14.82;3.90;;;10.40;99.90;;;;;;5025216;28;20395;-73
2022/05/29 05:01:42;;;;;;;10.25;3.17;;;10.50;99.90;;;;;;5028514;28;20184;-73
2022/05/29 05:04:08;;;;;;;14.07;3.38;;;10.50;99.90;;;;;;5027133;28;20044;-73
2022/05/29 05:06:34;;;;;;;10.90;3.42;;;10.60;99.90;;;;;;5027943;28;20408;-73
2022/05/29 05:09:01;;;;;;;13.02;3.38;;;10.60;99.90;;;;;;5024859;28;20123;-73
2022/05/29 05:11:27;;;;;;;14.07;3.83;;;10.70;99.90;;;;;;5027385;28;20065;-73
2022/05/29 05:13:52;;;;;;;14.48;3.25;;;10.70;99.90;;;;;;5026744;28;20416;-73
2022/05/29 05:16:18;;;;;;;14.93;3.65;;;10.70;99.90;;;;;;5026097;28;20487;-73
2022/05/29 05:18:44;;;;;;;13.98;3.60;;;10.70;99.90;;;;;;5026608;28;20061;-73
2022/05/29 05:21:10;;;;;;;13.85;3.08;;;10.80;99.90;;;;;;5027456;28;20534;-73
2022/05/29 05:23:36;;;;;;;13.68;3.90;;;10.90;99.90;;;;;;5027188;28;20114;-73
2022/05/29 05:26:08;;;;;;;11.95;3.17;;;10.80;99.90;;;;;;5026085;28;20087;-72
2022/05/29 05:28:33;;;;;;;13.18;3.00;;;10.90;99.90;;;;;;5027376;28;20052;-73
2022/05/29 05:30:59;;;;;;;15.68;3.63;;;10.90;99.90;;;;;;5024596;28;20412;-73
2022/05/29 05:33:25;;;;;;;11.30;3.08;;;10.90;99.90;;;;;;5025961;28;20124;-73
2022/05/29 05:35:50;;;;;;;15.07;3.00;;;10.90;99.90;;;;;;5025653;28;20143;-73
2022/05/29 05:38:16;;;;;;;10.15;3.22;;;10.90;99.90;;;;;;5026683;28;20388;-73
2022/05/29 05:40:42;;;;;;;9.20;3.42;;;11.00;99.90;;;;;;5025624;28;20036;-73
2022/05/29 05:43:08;;;;;;;10.60;3.17;;;11.00;99.90;;;;;;5026619;28;20457;-73
2022/05/29 05:45:34;;;;;;;11.07;2.92;;;11.00;99.90;;;;;;5027342;28;20312;-73
2022/05/29 05:48:00;;;;;;;14.35;2.85;;;11.10;99.90;;;;;;5026316;28;20114;-73
2022/05/29 05:50:25;;;;;;;15.05;2.95;;;11.10;99.90;;;;;;5023388;28;20037;-73
2022/05/29 05:52:51;;;;;;;15.25;3.53;;;11.10;99.90;;;;;;5027086;28;20037;-73
2022/05/29 05:55:17;;;;;;;10.55;3.38;;;11.10;99.90;;;;;;5028526;28;20396;-73
2022/05/29 05:57:42;;;;;;;13.57;3.28;;;11.20;99.90;;;;;;5031193;28;20072;-73
2022/05/29 06:00:13;;;;;;;11.00;3.05;;;11.20;99.90;;;;;;5029901;28;20036;-73
2022/05/29 06:02:42;;;;;;;9.85;3.03;;;11.30;99.90;;;;;;5029497;28;20060;-73
2022/05/29 06:05:10;;;;;;;11.30;3.20;;;11.30;99.90;;;;;;5029347;28;20042;-73
2022/05/29 06:07:35;;;;;;;12.13;2.90;;;11.30;99.90;;;;;;5028397;28;20037;-73
2022/05/29 06:10:01;;;;;;;11.50;2.90;;;11.40;99.90;;;;;;5029662;28;20114;-73
2022/05/29 06:12:27;;;;;;;13.57;3.13;;;11.40;99.90;;;;;;5030004;28;20052;-73
2022/05/29 06:14:54;;;;;;;13.85;3.40;;;11.50;99.90;;;;;;5027446;28;20026;-73
2022/05/29 06:17:20;;;;;;;10.25;3.20;;;11.50;99.90;;;;;;5029279;28;20044;-73
2022/05/29 06:19:46;;;;;;;16.00;3.83;;;11.60;99.90;;;;;;5029653;28;20484;-73
2022/05/29 06:22:11;;;;;;;15.32;3.05;;;11.70;99.90;;;;;;5030373;28;20049;-74
2022/05/29 06:24:37;;;;;;;11.45;3.05;;;11.70;99.90;;;;;;5028173;28;20423;-73
2022/05/29 06:27:03;;;;;;;12.40;2.70;;;11.80;99.90;;;;;;5028700;28;20126;-72
2022/05/29 06:29:29;;;;;;;14.48;3.25;;;11.80;99.90;;;;;;5028910;28;20041;-73
2022/05/29 06:32:00;;;;;;;13.88;3.05;;;11.90;99.90;;;;;;5021282;28;20136;-73
2022/05/29 06:34:26;;;;;;;14.27;2.67;;;11.90;99.90;;;;;;5001090;28;20128;-73
2022/05/29 06:36:52;;;;;;;11.20;3.10;;;11.90;99.90;;;;;;5028833;28;20037;-73
2022/05/29 06:39:18;;;;;;;11.20;2.70;;;11.90;99.90;;;;;;5028779;28;20044;-73
2022/05/29 06:41:44;;;;;;;14.30;2.85;;;12.00;99.90;;;;;;5028394;28;20037;-73
2022/05/29 06:44:10;;;;;;;10.88;2.45;;;12.10;99.90;;;;;;5031825;28;20037;-73
2022/05/29 06:46:36;;;;;;;15.20;2.60;;;12.10;99.90;;;;;;5032030;28;20041;-73
2022/05/29 06:49:01;;;;;;;14.02;2.40;;;12.10;99.90;;;;;;5012335;28;20073;-73
2022/05/29 06:51:27;;;;;;;7.18;1.98;;;12.10;99.90;;;;;;5030275;28;20041;-73
2022/05/29 06:53:56;;;;;;;7.82;1.85;;;12.10;99.90;;;;;;5029190;28;20033;-73
2022/05/29 06:56:22;;;;;;;8.88;1.80;;;11.90;99.90;;;;;;5025866;28;20037;-74
2022/05/29 06:58:49;;;;;;;11.50;2.58;;;11.80;99.90;;;;;;5024859;28;20038;-73
2022/05/29 07:07:01;;;;;;;10.95;2.75;;;11.60;99.90;;;;;;5033116;28;20553;-72
2022/05/29 07:09:39;;;;;;;14.25;2.50;;;11.60;99.90;;;;;;5007042;28;20037;-72
2022/05/29 07:12:24;;;;;;;11.65;2.53;;;11.50;99.90;;;;;;4996941;28;20499;-73
2022/05/29 07:14:59;;;;;;;14.68;2.63;;;11.60;99.90;;;;;;4993934;28;20422;-72
2022/05/29 07:17:27;;;;;;;15.27;3.03;;;11.70;99.90;;;;;;4999104;28;20071;-72
2022/05/29 07:19:55;;;;;;;16.27;3.13;;;11.70;99.90;;;;;;5029104;28;20471;-73
2022/05/29 07:22:21;;;;;;;17.63;2.92;;;11.70;99.90;;;;;;5033335;28;20431;-73
2022/05/29 07:24:46;;;;;;;16.92;2.80;;;11.80;99.90;;;;;;5049430;28;20037;-72
2022/05/29 07:27:12;;;;;;;9.35;2.38;;;11.80;99.90;;;;;;5030367;28;20106;-72
2022/05/29 07:29:39;;;;;;;12.57;2.75;;;11.90;99.90;;;;;;5034615;28;20248;-73
2022/05/29 07:32:05;;;;;;;10.73;2.60;;;12.00;99.90;;;;;;5031407;28;20045;-72
2022/05/29 07:34:31;;;;;;;20.02;3.10;;;12.10;99.90;;;;;;5032559;28;20167;-72
2022/05/29 07:37:09;;;;;;;19.73;3.08;;;12.10;99.90;;;;;;5033747;28;20072;-73
2022/05/29 07:39:41;;;;;;;15.55;3.45;;;12.20;99.90;;;;;;5031084;28;20045;-73
2022/05/29 07:44:52;;;;;;;14.18;3.10;;;12.30;99.90;;;;;;5030127;28;20096;-72
2022/05/29 07:47:19;;;;;;;16.30;3.42;;;12.30;99.90;;;;;;5031922;28;20040;-72
2022/05/29 07:49:45;;;;;;;15.68;2.90;;;12.30;99.90;;;;;;5027808;28;20037;-72
2022/05/29 07:52:11;;;;;;;12.50;2.72;;;12.30;99.90;;;;;;5032971;28;20045;-75
2022/05/29 07:54:36;;;;;;;16.60;2.75;;;12.40;99.90;;;;;;5029362;28;20071;-75
2022/05/29 07:57:03;;;;;;;13.98;2.67;;;12.50;99.90;;;;;;5030041;28;20057;-75
2022/05/29 07:59:29;;;;;;;10.43;2.90;;;12.50;99.90;;;;;;5028301;28;20554;-75
2022/05/29 08:01:55;;;;;;;12.50;2.70;;;12.50;99.90;;;;;;5029956;28;20045;-74
2022/05/29 08:04:21;;;;;;;12.68;2.55;;;12.50;99.90;;;;;;5015257;28;20511;-75
2022/05/29 08:06:47;;;;;;;15.93;2.60;;;12.70;99.90;;;;;;5032169;28;20049;-74
2022/05/29 08:09:13;;;;;;;11.48;2.28;;;12.80;99.90;;;;;;5030114;28;20040;-74
2022/05/29 08:11:38;;;;;;;15.82;2.50;;;12.90;99.90;;;;;;5030809;28;20488;-74
2022/05/29 08:14:04;;;;;;;10.35;2.13;;;12.90;99.90;;;;;;5038781;28;20088;-77
2022/05/29 08:16:30;;;;;;;10.73;2.17;;;13.00;99.90;;;;;;5002456;28;20044;-72
2022/05/29 08:18:56;;;;;;;12.30;2.13;;;13.10;99.90;;;;;;5028347;28;20591;-72
2022/05/29 08:21:22;;;;;;;10.57;2.17;;;13.20;99.90;;;;;;5013481;28;20124;-72
2022/05/29 08:32:01;;;;;;;9.57;1.83;;;13.40;99.90;;;;;;5009509;28;20041;-77
2022/05/29 08:34:27;;;;;;;8.30;1.60;;;13.40;99.90;;;;;;5031599;28;20042;-77
2022/05/29 08:36:55;;;;;;;11.73;2.20;;;13.30;99.90;;;;;;5013363;28;20116;-77
2022/05/29 08:39:21;;;;;;;8.30;1.83;;;13.30;99.90;;;;;;5030672;28;20083;-77
2022/05/29 08:41:51;;;;;;;10.90;1.85;;;13.30;99.90;;;;;;5028152;28;20037;-78
2022/05/29 08:44:35;;;;;;;10.10;1.70;;;13.30;99.90;;;;;;5018365;28;20036;-77
2022/05/29 08:47:02;;;;;;;8.98;1.42;;;13.30;99.90;;;;;;5030754;28;20064;-77
2022/05/29 08:49:39;;;;;;;7.45;2.03;;;13.20;99.90;;;;;;5029893;28;20136;-77
2022/05/29 08:52:14;;;;;;;5.85;1.30;;;13.10;99.90;;;;;;5027196;28;20038;-78
2022/05/29 08:54:56;;;;;;;6.13;1.17;;;13.10;99.90;;;;;;5024620;28;20456;-78
2022/05/29 08:57:38;;;;;;;5.18;1.15;;;13.20;99.90;;;;;;5036916;28;20044;-77
2022/05/29 09:00:20;;;;;;;10.60;1.10;;;13.10;99.90;;;;;;5028082;28;20524;-77
2022/05/29 09:03:16;;;;;;;6.87;1.40;;;13.20;99.90;;;;;;5036544;28;20580;-76
2022/05/29 09:06:00;;;;;;;9.13;1.33;;;13.20;99.90;;;;;;5019593;28;20296;-76
2022/05/29 09:08:35;;;;;;;4.80;1.23;;;13.30;99.90;;;;;;5033296;28;20041;-77
2022/05/29 09:11:14;;;;;;;5.72;1.30;;;13.30;99.90;;;;;;5036803;28;20124;-77
2022/05/29 09:13:52;;;;;;;4.40;1.20;;;13.30;99.90;;;;;;5015018;28;20792;-76
2022/05/29 09:16:24;;;;;;;6.00;1.25;;;13.30;99.90;;;;;;5032937;28;20072;-76
2022/05/29 09:19:25;;;;;;;4.22;1.05;;;13.30;99.90;;;;;;5014577;28;20194;-77
2022/05/29 09:22:00;;;;;;;5.57;1.20;;;13.30;99.90;;;;;;4980193;28;20081;-77
2022/05/29 09:24:48;;;;;;;5.75;1.52;;;13.30;99.90;;;;;;5004599;28;20119;-78
2022/05/29 09:27:16;;;;;;;6.07;1.20;;;13.30;99.90;;;;;;5048964;28;20350;-78
2022/05/29 09:29:41;;;;;;;6.93;1.67;;;13.20;99.90;;;;;;5032022;28;20037;-76
2022/05/29 09:32:14;;;;;;;6.30;1.20;;;13.20;99.90;;;;;;5029291;28;20096;-76
2022/05/29 09:34:42;;;;;;;6.70;1.40;;;13.30;99.90;;;;;;5046238;28;20160;-77
2022/05/29 09:37:22;;;;;;;6.22;1.20;;;13.20;99.90;;;;;;5032477;28;20037;-77
2022/05/29 09:39:54;;;;;;;7.35;1.58;;;13.20;99.90;;;;;;5047752;28;20551;-76
2022/05/29 09:42:39;;;;;;;10.23;1.60;;;13.30;99.90;;;;;;5016671;28;20443;-76
2022/05/29 09:45:22;;;;;;;6.03;1.30;;;13.20;99.90;;;;;;5031638;28;20034;-75
2022/05/29 09:50:47;;;;;;;7.60;1.27;;;13.30;99.90;;;;;;5036650;28;20315;-76
2022/05/29 09:53:17;;;;;;;6.32;1.58;;;13.20;99.90;;;;;;5033849;28;20037;-76
2022/05/29 09:56:02;;;;;;;4.53;1.10;;;13.20;99.90;;;;;;5015858;28;20479;-76
2022/05/29 09:58:35;;;;;;;10.18;1.38;;;13.20;99.90;;;;;;5032509;28;20037;-76
2022/05/29 10:01:06;;;;;;;3.70;1.10;;;13.20;99.90;;;;;;5035353;28;20034;-76
2022/05/29 10:03:52;;;;;;;5.60;1.27;;;13.20;99.90;;;;;;5014800;28;20491;-75
2022/05/29 10:06:26;;;;;;;8.75;1.38;;;13.30;99.90;;;;;;5019639;28;20053;-75
2022/05/29 10:09:01;;;;;;;10.82;1.42;;;13.40;99.90;;;;;;5030491;28;20044;-76
2022/05/29 10:11:30;;;;;;;5.78;1.48;;;13.30;99.90;;;;;;4995900;28;20041;-76
2022/05/29 10:13:56;;;;;;;6.32;1.35;;;13.30;99.90;;;;;;5012728;28;20057;-75
2022/05/29 10:16:35;;;;;;;6.13;1.05;;;13.40;99.90;;;;;;5016161;28;20030;-76
2022/05/29 10:19:01;;;;;;;8.32;1.50;;;13.40;99.90;;;;;;5023940;28;20481;-76
2022/05/29 10:21:33;;;;;;;7.53;1.38;;;13.30;99.90;;;;;;5015526;28;20435;-71
2022/05/29 10:24:23;;;;;;;10.02;1.65;;;13.30;99.90;;;;;;5026143;28;20045;-70
2022/05/29 10:27:01;;;;;;;7.00;1.50;;;13.20;99.90;;;;;;5038843;28;20046;-70
2022/05/29 10:29:32;;;;;;;5.25;1.42;;;13.10;99.90;;;;;;5008925;28;20072;-71
2022/05/29 10:32:01;;;;;;;4.97;1.48;;;13.10;99.90;;;;;;5028768;28;20040;-70
2022/05/29 10:34:33;;;;;;;7.60;1.67;;;13.10;99.90;;;;;;5009064;28;20079;-71
2022/05/29 10:37:01;;;;;;;5.78;1.33;;;13.20;99.90;;;;;;5042088;28;21622;-71
2022/05/29 10:39:31;;;;;;;6.68;1.40;;;13.30;99.90;;;;;;5026011;28;20072;-71
2022/05/29 10:41:58;;;;;;;6.07;1.63;;;13.50;99.90;;;;;;5012549;28;20052;-71
2022/05/29 10:44:33;;;;;;;7.78;1.50;;;13.60;99.90;;;;;;5024936;28;20072;-70
2022/05/29 10:47:16;;;;;;;5.88;1.85;;;13.70;99.90;;;;;;5031612;28;20579;-71
2022/05/29 10:50:19;;;;;;;6.18;1.48;;;13.80;99.90;;;;;;5028909;28;20033;-71
2022/05/29 10:53:04;;;;;;;7.85;1.60;;;13.80;99.90;;;;;;5031268;28;20030;-70
2022/05/29 10:55:42;;;;;;;7.22;1.48;;;13.70;99.90;;;;;;5033367;28;20037;-71
2022/05/29 10:58:19;;;;;;;3.88;1.20;;;13.50;99.90;;;;;;5030536;28;20069;-71
2022/05/29 11:00:58;;;;;;;3.95;1.02;;;13.40;99.90;;;;;;5027813;28;20045;-71
2022/05/29 11:04:00;;;;;;;4.30;1.30;;;13.40;99.90;;;;;;5030297;28;20073;-71
2022/05/29 11:06:38;;;;;;;4.23;1.27;;;13.40;99.90;;;;;;5026783;28;20045;-71
2022/05/29 11:09:38;;;;;;;5.18;1.00;;;13.40;99.90;;;;;;5027646;28;20358;-71
2022/05/29 11:12:16;;;;;;;5.45;0.98;;;13.50;99.90;;;;;;5028637;28;20029;-71
2022/05/29 11:14:56;;;;;;;4.43;1.00;;;13.60;99.90;;;;;;5023139;28;20042;-75
2022/05/29 11:18:06;;;;;;;5.72;1.20;;;13.90;99.90;;;;;;5030289;28;20079;-71
2022/05/29 11:20:57;;;;;;;6.28;1.20;;;14.20;99.90;;;;;;5025475;28;20132;-71
2022/05/29 11:23:45;;;;;;;4.90;1.13;;;14.50;99.90;;;;;;5044959;28;20060;-71
2022/05/29 11:26:36;;;;;;;5.63;1.33;;;14.70;99.90;;;;;;5026203;28;20077;-70
2022/05/29 11:29:27;;;;;;;6.60;1.95;;;14.70;99.90;;;;;;5025458;28;20055;-71
2022/05/29 11:32:03;;;;;;;8.25;1.40;;;14.70;99.90;;;;;;5025479;28;20049;-70
2022/05/29 11:34:52;;;;;;;4.55;1.10;;;14.60;99.90;;;;;;5025694;28;20036;-71
2022/05/29 11:37:42;;;;;;;10.57;1.80;;;14.50;99.90;;;;;;5018801;28;20042;-70
2022/05/29 11:40:22;;;;;;;6.15;1.20;;;14.50;99.90;;;;;;5030938;28;20045;-70
2022/05/29 11:43:06;;;;;;;5.80;1.38;;;14.50;99.90;;;;;;5033283;28;20079;-70
2022/05/29 11:52:10;;;;;;;5.35;1.40;;;14.60;99.90;;;;;;5025365;28;20088;-70
2022/05/29 11:55:22;;;;;;;8.38;1.65;;;14.70;99.90;;;;;;5032676;28;20400;-70
2022/05/29 11:58:01;;;;;;;6.70;1.38;;;15.00;99.90;;;;;;5030079;28;20085;-70
2022/05/29 12:00:49;;;;;;;10.25;1.58;;;15.10;99.90;;;;;;5021460;28;20079;-70
2022/05/29 12:03:24;;;;;;;7.63;1.70;;;15.00;99.90;;;;;;5013671;28;20071;-70
2022/05/29 12:06:05;;;;;;;9.30;1.30;;;15.00;99.90;;;;;;5027527;28;20056;-70
2022/05/29 12:09:08;;;;;;;3.85;1.10;;;15.00;99.90;;;;;;5031717;28;20049;-70
2022/05/29 12:11:46;;;;;;;5.07;1.30;;;14.90;99.90;;;;;;5029674;28;20045;-71
2022/05/29 12:14:34;;;;;;;6.25;1.50;;;14.80;99.90;;;;;;5018784;28;20045;-71
2022/05/29 12:17:07;;;;;;;7.38;1.58;;;14.70;99.90;;;;;;5025395;28;20037;-70
2022/05/29 12:19:44;;;;;;;6.43;1.40;;;14.40;99.90;;;;;;5026628;28;20049;-70
2022/05/29 12:22:12;;;;;;;9.27;1.80;;;14.30;99.90;;;;;;5023446;28;20038;-70
2022/05/29 12:24:46;;;;;;;8.10;1.55;;;14.00;99.90;;;;;;5025953;28;20175;-69
2022/05/29 12:27:21;;;;;;;9.77;1.77;;;13.90;99.90;;;;;;5022604;28;20048;-69
2022/05/29 12:30:05;;;;;;;5.15;1.20;;;13.90;99.90;;;;;;5022659;28;20034;-69
2022/05/29 12:32:34;;;;;;;6.68;1.50;;;13.80;99.90;;;;;;5021974;28;20046;-70
2022/05/29 12:35:13;;;;;;;10.20;1.77;;;13.80;99.90;;;;;;5022183;28;20052;-70
2022/05/29 12:37:57;;;;;;;7.35;2.03;;;13.90;99.90;;;;;;5023283;28;20037;-70
2022/05/29 12:40:53;;;;;;;7.18;1.98;;;14.00;99.90;;;;;;5021693;28;20044;-70
2022/05/29 12:43:40;;;;;;;5.75;1.50;;;14.10;99.90;;;;;;5022554;28;20046;-70
2022/05/29 12:46:17;;;;;;;8.65;1.50;;;14.10;99.90;;;;;;5017096;28;20053;-69
2022/05/29 12:49:05;;;;;;;5.57;1.50;;;14.30;99.90;;;;;;5024100;28;20037;-70
2022/05/29 12:51:56;;;;;;;5.63;1.30;;;14.40;99.90;;;;;;5020826;28;20192;-70
2022/05/29 12:54:40;;;;;;;5.00;1.30;;;14.60;99.90;;;;;;5040069;28;20088;-70
2022/05/29 12:57:21;;;;;;;9.70;1.70;;;14.80;99.90;;;;;;5035393;28;20061;-71
2022/05/29 13:00:09;;;;;;;7.80;1.83;;;14.90;99.90;;;;;;5022402;28;20036;-70
2022/05/29 13:03:17;;;;;;;7.90;1.40;;;14.80;99.90;;;;;;5022919;28;20416;-69
2022/05/29 13:05:46;;;;;;;7.75;1.73;;;14.80;99.90;;;;;;5025394;28;20044;-70
2022/05/29 13:08:54;;;;;;;10.25;1.70;;;14.60;99.90;;;;;;5025682;28;20083;-70
2022/05/29 13:11:27;;;;;;;9.10;1.58;;;14.40;99.90;;;;;;5024858;28;20527;-70
2022/05/29 13:13:59;;;;;;;10.82;2.10;;;14.30;99.90;;;;;;5024329;28;20030;-70
2022/05/29 13:16:34;;;;;;;10.05;1.80;;;14.20;99.90;;;;;;5024573;28;20037;-70
2022/05/29 13:19:21;;;;;;;12.80;2.03;;;14.00;99.90;;;;;;5023460;28;20149;-70
2022/05/29 13:21:53;;;;;;;9.85;2.05;;;13.90;99.90;;;;;;5024762;28;20041;-70
2022/05/29 13:24:19;;;;;;;14.45;1.98;;;13.70;99.90;;;;;;5022076;28;20045;-70
2022/05/29 13:27:10;;;;;;;7.40;1.80;;;13.60;99.90;;;;;;5025632;28;20056;-70
2022/05/29 13:29:39;;;;;;;12.05;1.92;;;13.50;99.90;;;;;;5018159;28;20055;-70
2022/05/29 13:32:29;;;;;;;6.18;1.50;;;13.40;99.90;;;;;;5036216;28;20049;-69
2022/05/29 13:35:04;;;;;;;6.00;1.70;;;13.50;99.90;;;;;;5022690;28;20052;-70
2022/05/29 13:37:32;;;;;;;11.27;1.80;;;13.50;99.90;;;;;;5024864;28;20042;-71
2022/05/29 13:40:06;;;;;;;12.10;2.10;;;13.60;99.90;;;;;;5024622;28;20038;-70
2022/05/29 13:42:38;;;;;;;5.55;1.58;;;13.60;99.90;;;;;;5024449;28;20166;-70
2022/05/29 13:45:19;;;;;;;9.77;2.00;;;13.60;99.90;;;;;;5025447;28;20068;-70
2022/05/29 13:47:53;;;;;;;8.60;2.08;;;13.70;99.90;;;;;;5023965;28;20041;-70
2022/05/29 13:50:28;;;;;;;9.15;1.95;;;13.70;99.90;;;;;;5027189;28;20076;-70